createdAt,value
2018-12-25T00:01:07.848Z,1.47
2018-12-25T00:06:26.020Z,2.00
2018-12-25T00:11:44.812Z,3.03
2018-12-25T00:17:02.845Z,1.70
2018-12-25T00:22:21.184Z,1.17
2018-12-25T00:27:38.821Z,1.00
2018-12-25T00:32:56.679Z,0.70
2018-12-25T00:38:14.386Z,1.40
2018-12-25T00:43:32.555Z,1.53
2018-12-25T00:48:50.596Z,0.97
2018-12-25T00:54:08.909Z,1.53
2018-12-25T00:59:26.915Z,0.90
2018-12-25T01:04:44.291Z,1.03
2018-12-25T01:10:02.095Z,0.70
2018-12-25T01:15:21.002Z,0.80
2018-12-25T01:20:39.203Z,1.20
2018-12-25T01:25:57.387Z,1.33
2018-12-25T01:31:15.656Z,1.07
2018-12-25T01:36:33.530Z,1.10
2018-12-25T01:41:51.306Z,1.10
2018-12-25T01:47:09.375Z,0.80
2018-12-25T01:52:26.792Z,0.93
2018-12-25T01:57:44.935Z,0.80
2018-12-25T02:03:02.432Z,1.20
2018-12-25T02:08:20.618Z,0.87
2018-12-25T02:13:38.334Z,0.77
2018-12-25T02:18:56.109Z,1.00
2018-12-25T02:24:14.508Z,0.80
2018-12-25T02:29:32.870Z,0.73
2018-12-25T02:34:50.976Z,0.77
2018-12-25T02:40:09.388Z,0.90
2018-12-25T02:45:27.773Z,0.90
2018-12-25T02:50:45.698Z,0.77
2018-12-25T02:56:03.345Z,1.00
2018-12-25T03:01:21.365Z,0.70
2018-12-25T03:06:38.946Z,0.80
2018-12-25T03:11:56.461Z,1.23
2018-12-25T03:17:13.996Z,0.80
2018-12-25T03:22:32.142Z,1.33
2018-12-25T03:27:50.236Z,1.17
2018-12-25T03:33:07.683Z,1.27
2018-12-25T03:38:25.814Z,1.30
2018-12-25T03:43:43.776Z,1.50
2018-12-25T03:49:02.160Z,1.30
2018-12-25T03:54:19.861Z,1.50
2018-12-25T03:59:37.973Z,1.50
2018-12-25T04:04:56.436Z,1.80
2018-12-25T04:10:14.100Z,1.30
2018-12-25T04:15:31.633Z,1.23
2018-12-25T04:20:49.546Z,1.30
2018-12-25T04:26:07.731Z,1.50
2018-12-25T04:31:25.624Z,1.50
2018-12-25T04:36:43.375Z,1.50
2018-12-25T04:42:01.545Z,1.43
2018-12-25T04:47:20.630Z,1.07
2018-12-25T04:52:38.326Z,1.10
2018-12-25T04:57:55.760Z,1.37
2018-12-25T05:03:13.285Z,1.17
2018-12-25T05:08:31.175Z,1.00
2018-12-25T05:13:49.000Z,1.00
2018-12-25T05:19:07.175Z,1.30
2018-12-25T05:24:25.065Z,1.57
2018-12-25T05:29:43.411Z,1.70
2018-12-25T05:35:01.146Z,1.37
2018-12-25T05:40:19.288Z,1.57
2018-12-25T05:45:36.848Z,1.53
2018-12-25T05:50:54.568Z,2.00
2018-12-25T05:56:12.024Z,1.40
2018-12-25T06:01:29.558Z,1.43
2018-12-25T06:06:47.613Z,1.47
2018-12-25T06:12:05.762Z,1.90
2018-12-25T06:17:23.893Z,1.43
2018-12-25T06:22:41.863Z,1.70
2018-12-25T06:27:59.326Z,1.20
2018-12-25T06:33:17.301Z,1.40
2018-12-25T06:38:35.401Z,1.43
2018-12-25T06:43:53.996Z,1.73
2018-12-25T06:49:11.700Z,1.30
2018-12-25T06:54:29.188Z,1.30
2018-12-25T06:59:47.537Z,1.30
2018-12-25T07:05:05.403Z,1.00
2018-12-25T07:10:23.380Z,1.10
2018-12-25T07:15:41.668Z,1.47
2018-12-25T07:20:59.569Z,1.10
2018-12-25T07:26:17.029Z,0.97
2018-12-25T07:31:35.650Z,0.83
2018-12-25T07:36:53.598Z,1.30
2018-12-25T07:42:11.843Z,1.50
2018-12-25T07:47:29.603Z,1.30
2018-12-25T07:52:47.339Z,1.33
2018-12-25T07:58:05.242Z,1.50
2018-12-25T08:03:23.325Z,1.20
2018-12-25T08:08:41.030Z,1.40
2018-12-25T08:13:59.276Z,1.43
2018-12-25T08:19:17.536Z,1.40
2018-12-25T08:24:34.989Z,1.83
2018-12-25T08:29:53.291Z,1.53
2018-12-25T08:35:11.059Z,1.70
2018-12-25T08:40:29.089Z,1.60
2018-12-25T08:45:46.751Z,1.33
2018-12-25T08:51:04.906Z,1.10
2018-12-25T08:56:23.342Z,1.33
2018-12-25T09:01:41.881Z,2.27
2018-12-25T09:06:59.435Z,1.37
2018-12-25T09:12:16.922Z,1.83
2018-12-25T09:17:35.942Z,1.70
2018-12-25T09:22:53.562Z,1.37
2018-12-25T09:28:11.849Z,1.53
2018-12-25T09:33:29.355Z,1.30
2018-12-25T09:38:47.972Z,1.70
2018-12-25T09:44:05.678Z,1.73
2018-12-25T09:49:23.753Z,1.80
2018-12-25T09:54:41.537Z,1.77
2018-12-25T09:59:59.791Z,2.30
2018-12-25T10:05:17.803Z,1.67
2018-12-25T10:10:35.657Z,1.33
2018-12-25T10:15:53.567Z,1.20
2018-12-25T10:21:10.962Z,1.50
2018-12-25T10:26:29.190Z,1.63
2018-12-25T10:31:47.198Z,1.97
2018-12-25T10:37:05.429Z,2.10
2018-12-25T10:42:23.561Z,1.80
2018-12-25T10:47:41.735Z,2.30
2018-12-25T10:52:59.306Z,2.70
2018-12-25T10:58:16.945Z,2.40
2018-12-25T11:03:35.140Z,2.53
2018-12-25T11:08:52.886Z,2.40
2018-12-25T11:14:11.216Z,2.27
2018-12-25T11:19:29.153Z,2.10
2018-12-25T11:24:47.282Z,2.27
2018-12-25T11:30:04.905Z,2.57
2018-12-25T11:35:23.287Z,3.33
2018-12-25T11:40:40.688Z,3.20
2018-12-25T11:45:59.066Z,2.93
2018-12-25T11:51:16.602Z,3.57
2018-12-25T11:56:34.878Z,3.07
2018-12-25T12:01:52.724Z,3.20
2018-12-25T12:07:10.254Z,2.63
2018-12-25T12:12:28.620Z,3.10
2018-12-25T12:17:46.167Z,2.00
2018-12-25T12:23:04.572Z,2.00
2018-12-25T12:28:23.251Z,2.37
2018-12-25T12:33:41.398Z,2.40
2018-12-25T12:38:59.665Z,2.23
2018-12-25T12:44:18.028Z,2.20
2018-12-25T12:49:35.963Z,2.30
2018-12-25T12:54:53.469Z,1.87
2018-12-25T13:00:11.894Z,2.33
2018-12-25T13:05:31.398Z,2.40
2018-12-25T13:10:49.855Z,1.83
2018-12-25T13:16:07.379Z,2.60
2018-12-25T13:21:25.758Z,2.60
2018-12-25T13:26:44.329Z,2.77
2018-12-25T13:32:02.368Z,2.57
2018-12-25T13:37:21.534Z,1.83
2018-12-25T13:42:39.659Z,2.33
2018-12-25T13:47:57.818Z,1.83
2018-12-25T13:53:15.430Z,1.50
2018-12-25T13:58:33.211Z,1.73
2018-12-25T14:03:51.889Z,1.67
2018-12-25T14:09:09.750Z,2.23
2018-12-25T14:14:27.519Z,1.80
2018-12-25T14:19:45.103Z,2.43
2018-12-25T14:25:03.533Z,2.03
2018-12-25T14:30:21.641Z,2.17
2018-12-25T14:35:40.023Z,1.80
2018-12-25T14:40:58.184Z,1.77
2018-12-25T14:46:16.272Z,1.70
2018-12-25T14:51:34.362Z,1.20
2018-12-25T14:56:52.576Z,2.00
2018-12-25T15:02:11.229Z,1.63
2018-12-25T15:07:29.216Z,1.93
2018-12-25T15:12:47.585Z,2.10
2018-12-25T15:18:06.765Z,2.00
2018-12-25T15:23:28.129Z,2.73
2018-12-25T15:28:43.928Z,2.10
2018-12-25T15:34:01.902Z,2.20
2018-12-25T15:39:20.552Z,1.97
2018-12-25T15:44:38.400Z,2.10
2018-12-25T15:49:56.384Z,2.13
2018-12-25T15:55:14.185Z,2.30
2018-12-25T16:00:32.164Z,2.43
2018-12-25T16:05:52.509Z,3.67
2018-12-25T16:11:10.758Z,4.53
2018-12-25T16:16:29.122Z,3.20
2018-12-25T16:21:48.266Z,2.50
2018-12-25T16:27:06.820Z,2.43
2018-12-25T16:32:25.210Z,2.37
2018-12-25T16:37:45.122Z,2.57
2018-12-25T16:43:02.961Z,2.23
2018-12-25T16:48:21.134Z,3.83
2018-12-25T16:53:39.184Z,2.80
2018-12-25T16:58:57.254Z,3.00
2018-12-25T17:04:15.075Z,2.90
2018-12-25T17:09:33.525Z,3.30
2018-12-25T17:14:51.180Z,2.70
2018-12-25T17:20:10.234Z,3.30
2018-12-25T17:25:28.133Z,3.17
2018-12-25T17:30:46.532Z,3.17
2018-12-25T17:36:04.207Z,3.40
2018-12-25T17:41:21.745Z,2.50
2018-12-25T17:46:39.658Z,2.30
2018-12-25T17:51:58.311Z,2.83
2018-12-25T17:57:15.738Z,2.83
2018-12-25T18:02:34.050Z,2.83
2018-12-25T18:07:51.747Z,2.50
2018-12-25T18:13:10.956Z,2.50
2018-12-25T18:18:28.972Z,2.80
2018-12-25T18:23:46.934Z,3.10
2018-12-25T18:29:05.212Z,2.67
2018-12-25T18:34:23.926Z,2.90
2018-12-25T18:39:41.912Z,8.77
2018-12-25T18:44:59.830Z,3.20
2018-12-25T18:50:17.694Z,2.80
2018-12-25T18:55:35.710Z,3.43
2018-12-25T19:00:54.091Z,3.87
2018-12-25T19:06:13.106Z,2.70
2018-12-25T19:11:31.094Z,3.37
2018-12-25T19:16:51.490Z,3.17
2018-12-25T19:22:08.585Z,2.90
2018-12-25T19:27:27.278Z,2.77
2018-12-25T19:32:45.119Z,2.47
2018-12-25T19:38:02.833Z,2.57
2018-12-25T19:43:22.475Z,3.27
2018-12-25T19:48:40.151Z,2.60
2018-12-25T19:53:58.411Z,3.90
2018-12-25T19:59:16.920Z,2.90
2018-12-25T20:04:35.454Z,2.90
2018-12-25T20:09:53.794Z,4.33
2018-12-25T20:15:12.074Z,6.43
2018-12-25T20:20:29.835Z,4.13
2018-12-25T20:25:47.925Z,4.70
2018-12-25T20:31:05.829Z,7.77
2018-12-25T20:36:23.992Z,6.50
2018-12-25T20:41:42.176Z,5.87
2018-12-25T20:46:59.940Z,6.40
2018-12-25T20:52:20.946Z,6.00
2018-12-25T20:57:38.650Z,5.37
2018-12-25T21:02:56.369Z,4.43
2018-12-25T21:08:14.107Z,3.37
2018-12-25T21:13:32.415Z,5.30
2018-12-25T21:18:50.434Z,4.90
2018-12-25T21:24:10.712Z,5.07
2018-12-25T21:29:28.894Z,5.27
2018-12-25T21:34:47.278Z,3.13
2018-12-25T21:40:06.060Z,3.60
2018-12-25T21:45:24.468Z,6.10
2018-12-25T21:50:42.771Z,5.53
2018-12-25T21:56:00.617Z,4.73
2018-12-25T22:01:19.224Z,15.23
2018-12-25T22:06:37.406Z,10.63
2018-12-25T22:11:55.199Z,10.50
2018-12-25T22:17:13.220Z,9.40
2018-12-25T22:22:31.338Z,5.87
2018-12-25T22:27:49.314Z,6.53
2018-12-25T22:33:07.674Z,5.93
2018-12-25T22:38:25.892Z,7.70
2018-12-25T22:43:44.308Z,5.00
2018-12-25T22:49:01.962Z,6.87
2018-12-25T22:54:21.916Z,4.30
2018-12-25T22:59:39.874Z,4.63
2018-12-25T23:04:57.660Z,4.73
2018-12-25T23:10:15.592Z,5.23
2018-12-25T23:15:33.551Z,5.10
2018-12-25T23:20:52.062Z,4.93
2018-12-25T23:26:10.330Z,4.37
2018-12-25T23:31:27.886Z,4.90
2018-12-25T23:36:46.173Z,5.47
2018-12-25T23:42:04.208Z,8.50
2018-12-25T23:47:23.663Z,7.10
2018-12-25T23:52:42.038Z,7.43
2018-12-25T23:58:00.016Z,6.37
